Terminal Aerodrome Forecast
Issued by NWS

Home | Current Version | Previous Version | Text Only | Print | Product List | Glossary On
Versions: 1 2 3 4 5 6 7 8 9 10 11 12 13 14 15 16
000
FTAK31 PANC 291720
TAFAIL
TAF
PAIL 291720Z 2918/3018 09009KT P6SM VCSH SCT025 BKN045
      TEMPO 2918/2921 BKN025
     FM300200 11010KT P6SM SCT035 BKN070
     FM300800 08005KT P6SM SCT080 BKN150
     FM301600 09014KT P6SM BKN080=

USA.gov is the U.S. government's official web portal to all federal, state and local government web resources and services.